Time;durP1;ratioP1;P1;durP2;ratioP2;P2;SDS_P1;SDS_P2;PMS_P1;PMS_P2;Temp;Humidity;BMP_temperature;BMP_pressure;BME280_temperature;BME280_humidity;BME280_pressure;Samples;Min_cycle;Max_cycle;Signal;HPM_P1;HPM_P2
2023/09/12 00:01:17;;;;;;;14.05;5.93;;;;;;;13.19;100.00;99404.56;5159891;27;20065;-54
2023/09/12 00:03:43;;;;;;;8.40;4.80;;;;;;;13.17;100.00;99401.41;5160248;27;20078;-58
2023/09/12 00:06:09;;;;;;;9.70;4.80;;;;;;;13.15;100.00;99406.47;5160030;27;20046;-53
2023/09/12 00:08:35;;;;;;;10.25;5.22;;;;;;;13.12;100.00;99418.25;5160061;27;20362;-57
2023/09/12 00:11:02;;;;;;;9.57;4.97;;;;;;;13.07;100.00;99424.09;5159582;27;20097;-55
2023/09/12 00:13:28;;;;;;;11.90;5.28;;;;;;;13.05;100.00;99420.13;5159866;27;20051;-57
2023/09/12 00:15:55;;;;;;;9.13;5.00;;;;;;;13.15;100.00;99434.00;5159910;27;20052;-54
2023/09/12 00:18:21;;;;;;;8.57;4.82;;;;;;;13.12;100.00;99421.00;5159545;27;20054;-57
2023/09/12 00:20:47;;;;;;;11.82;4.95;;;;;;;13.10;100.00;99431.59;5159973;27;20054;-58
2023/09/12 00:23:13;;;;;;;9.45;4.88;;;;;;;13.06;100.00;99428.03;5159615;27;20101;-58
2023/09/12 00:25:39;;;;;;;14.32;4.82;;;;;;;13.01;100.00;99425.59;5159720;27;20144;-57
2023/09/12 00:28:05;;;;;;;10.98;4.47;;;;;;;12.97;100.00;99424.75;5159502;27;20078;-58
2023/09/12 00:30:31;;;;;;;8.77;4.50;;;;;;;12.97;100.00;99424.75;5159691;27;20054;-54
2023/09/12 00:32:57;;;;;;;12.55;4.57;;;;;;;12.99;100.00;99427.13;5159381;27;20046;-54
2023/09/12 00:35:23;;;;;;;10.57;5.00;;;;;;;12.97;100.00;99419.25;5159675;27;20051;-54
2023/09/12 00:37:49;;;;;;;9.40;4.57;;;;;;;12.94;100.00;99425.50;5159226;27;20047;-55
2023/09/12 00:40:15;;;;;;;9.90;4.70;;;;;;;12.89;100.00;99429.34;5159948;27;20445;-55
2023/09/12 00:42:41;;;;;;;9.93;4.43;;;;;;;12.91;100.00;99431.75;5159401;27;20089;-56
2023/09/12 00:45:07;;;;;;;13.05;5.40;;;;;;;12.83;100.00;99430.88;5159371;27;20057;-57
2023/09/12 00:47:34;;;;;;;8.70;4.80;;;;;;;12.84;100.00;99443.47;5159380;27;20047;-54
2023/09/12 00:50:01;;;;;;;8.45;4.22;;;;;;;12.83;100.00;99454.81;5159204;27;20093;-59
2023/09/12 00:52:29;;;;;;;10.43;4.80;;;;;;;12.82;100.00;99442.25;5159377;27;20133;-56
2023/09/12 00:54:55;;;;;;;10.75;4.65;;;;;;;12.81;100.00;99455.22;5158764;27;20046;-58
2023/09/12 00:57:22;;;;;;;10.82;4.32;;;;;;;12.79;100.00;99438.25;5159160;27;20146;-55
2023/09/12 00:59:48;;;;;;;9.38;4.75;;;;;;;12.72;100.00;99447.22;5158851;27;20420;-56
2023/09/12 01:02:14;;;;;;;7.32;4.80;;;;;;;12.73;100.00;99459.03;5159226;27;20057;-55
2023/09/12 01:04:41;;;;;;;9.40;4.50;;;;;;;12.67;100.00;99450.31;5158786;27;20083;-57
2023/09/12 01:07:08;;;;;;;11.52;4.85;;;;;;;12.69;100.00;99470.00;5159301;27;20391;-56
2023/09/12 01:09:34;;;;;;;6.93;4.53;;;;;;;12.67;100.00;99457.78;5158525;27;20449;-57
2023/09/12 01:12:02;;;;;;;7.85;4.75;;;;;;;12.67;100.00;99455.03;5158975;27;20356;-57
2023/09/12 01:14:28;;;;;;;8.15;4.50;;;;;;;12.63;100.00;99456.94;5158968;27;20110;-54
2023/09/12 01:16:55;;;;;;;11.68;4.72;;;;;;;12.60;100.00;99474.19;5158727;27;20545;-57
2023/09/12 01:19:21;;;;;;;9.70;4.85;;;;;;;12.54;100.00;99462.69;5158997;27;20145;-57
2023/09/12 01:22:11;;;;;;;6.85;4.47;;;;;;;12.59;100.00;99458.81;5158693;27;20101;-57
2023/09/12 01:25:03;;;;;;;10.57;4.10;;;;;;;12.53;100.00;99441.03;5145947;27;20191;-58
2023/09/12 01:27:34;;;;;;;8.93;4.40;;;;;;;12.54;100.00;99451.69;5158964;27;20374;-53
2023/09/12 01:30:03;;;;;;;12.95;4.50;;;;;;;12.38;100.00;99451.06;5158602;27;20059;-55
2023/09/12 01:32:30;;;;;;;8.73;4.38;;;;;;;12.42;100.00;99468.38;5158365;27;20057;-57
2023/09/12 01:34:55;;;;;;;7.18;4.22;;;;;;;12.39;100.00;99474.63;5158335;27;20056;-59
2023/09/12 01:37:21;;;;;;;7.57;4.35;;;;;;;12.42;100.00;99465.63;5158479;27;20046;-59
2023/09/12 01:39:47;;;;;;;7.20;4.10;;;;;;;12.42;100.00;99476.63;5158138;27;20047;-57
2023/09/12 01:42:16;;;;;;;9.25;4.00;;;;;;;12.34;100.00;99469.47;5158644;27;20102;-54
2023/09/12 01:44:44;;;;;;;5.75;4.35;;;;;;;12.42;100.00;99465.63;5158176;27;20047;-54
2023/09/12 01:47:11;;;;;;;5.80;4.15;;;;;;;12.43;100.00;99453.50;5158542;27;20450;-57
2023/09/12 01:49:42;;;;;;;9.85;3.70;;;;;;;12.43;100.00;99453.50;5158100;27;20125;-57
2023/09/12 01:52:09;;;;;;;9.43;4.32;;;;;;;12.36;100.00;99439.63;5158829;27;20415;-57
2023/09/12 01:54:36;;;;;;;11.02;3.95;;;;;;;12.39;100.00;99461.66;5158090;27;20075;-56
2023/09/12 01:57:03;;;;;;;8.80;4.22;;;;;;;12.35;100.00;99443.53;5158237;27;20054;-55
2023/09/12 01:59:29;;;;;;;6.50;3.75;;;;;;;12.34;100.00;99441.97;5158317;27;20042;-55
2023/09/12 02:01:56;;;;;;;7.20;4.22;;;;;;;12.38;100.00;99438.09;5158109;27;20114;-57
2023/09/12 02:04:22;;;;;;;9.93;4.13;;;;;;;12.25;100.00;99422.97;5158314;27;20137;-55
2023/09/12 02:06:48;;;;;;;18.73;4.00;;;;;;;12.25;100.00;99428.47;5157350;27;20081;-55
2023/09/12 02:09:14;;;;;;;12.88;3.88;;;;;;;12.31;100.00;99438.00;5158133;27;20043;-55
2023/09/12 02:11:40;;;;;;;9.45;3.80;;;;;;;12.28;100.00;99432.44;5157985;27;20050;-54
2023/09/12 02:14:05;;;;;;;5.40;4.18;;;;;;;12.25;100.00;99428.47;5158209;27;20146;-54
2023/09/12 02:16:31;;;;;;;5.63;3.78;;;;;;;12.22;100.00;99432.75;5157815;27;20054;-54
2023/09/12 02:18:58;;;;;;;6.47;3.55;;;;;;;12.20;100.00;99426.06;5158262;27;20191;-57
2023/09/12 02:21:24;;;;;;;7.40;3.92;;;;;;;12.21;100.00;99430.38;5157726;27;20133;-56
2023/09/12 02:23:50;;;;;;;9.55;3.97;;;;;;;12.20;100.00;99437.84;5158141;27;20356;-57
2023/09/12 02:26:16;;;;;;;7.15;3.85;;;;;;;12.18;100.00;99437.41;5158099;27;20109;-58
2023/09/12 02:28:42;;;;;;;7.63;3.70;;;;;;;12.15;100.00;99448.34;5157858;27;20055;-59
2023/09/12 02:31:10;;;;;;;4.97;3.78;;;;;;;12.02;100.00;99459.50;5157797;27;20047;-58
2023/09/12 02:33:37;;;;;;;4.72;3.72;;;;;;;12.06;100.00;99464.28;5157588;27;20058;-55
2023/09/12 02:36:04;;;;;;;3.97;3.58;;;;;;;12.10;100.00;99467.91;5157742;27;20517;-57
2023/09/12 02:38:30;;;;;;;7.22;4.40;;;;;;;12.14;100.00;99466.78;5157455;27;20436;-58
2023/09/12 02:40:56;;;;;;;7.57;3.80;;;;;;;12.10;100.00;99459.66;5157851;27;20061;-58
2023/09/12 02:43:22;;;;;;;7.20;3.85;;;;;;;12.06;100.00;99453.28;5157487;27;20055;-56
2023/09/12 02:45:48;;;;;;;9.02;4.32;;;;;;;12.00;100.00;99461.84;5158025;27;20099;-58
2023/09/12 02:48:14;;;;;;;5.53;3.72;;;;;;;11.99;100.00;99473.19;5157443;27;20047;-56
2023/09/12 02:50:40;;;;;;;7.72;4.15;;;;;;;11.92;100.00;99476.63;5157828;27;20047;-55
2023/09/12 02:53:07;;;;;;;12.50;4.00;;;;;;;11.88;100.00;99489.50;5157292;27;20166;-55
2023/09/12 02:55:33;;;;;;;8.60;4.03;;;;;;;11.89;100.00;99506.78;5157344;27;20047;-57
2023/09/12 02:57:59;;;;;;;7.20;3.45;;;;;;;11.91;100.00;99501.72;5157453;27;20050;-59
2023/09/12 03:00:25;;;;;;;6.28;3.83;;;;;;;11.85;100.00;99495.72;5157170;27;20142;-56
2023/09/12 03:02:51;;;;;;;7.65;3.80;;;;;;;11.76;100.00;99493.19;5156690;27;20100;-54
2023/09/12 03:05:17;;;;;;;6.30;3.90;;;;;;;11.82;100.00;99512.13;5157210;27;20051;-58
2023/09/12 03:07:43;;;;;;;5.65;3.65;;;;;;;11.81;100.00;99516.03;5157455;27;20085;-59
2023/09/12 03:10:09;;;;;;;6.53;3.88;;;;;;;11.84;100.00;99513.38;5157206;27;20145;-58
2023/09/12 03:12:35;;;;;;;6.53;3.97;;;;;;;11.87;100.00;99514.59;5157516;27;20139;-57
2023/09/12 03:15:02;;;;;;;5.28;3.97;;;;;;;11.90;100.00;99508.38;5157113;27;20141;-55
2023/09/12 03:17:28;;;;;;;9.77;3.75;;;;;;;11.79;100.00;99510.88;5157481;27;20057;-56
2023/09/12 03:19:54;;;;;;;11.32;4.57;;;;;;;11.81;100.00;99519.56;5160237;27;20399;-58
2023/09/12 03:22:20;;;;;;;5.95;3.97;;;;;;;11.80;100.00;99508.97;5160946;27;20051;-58
2023/09/12 03:24:46;;;;;;;6.80;4.55;;;;;;;11.80;100.00;99509.75;5160702;27;20142;-59
2023/09/12 03:27:13;;;;;;;7.03;3.53;;;;;;;11.76;100.00;99506.94;5160576;27;20047;-56
2023/09/12 03:29:39;;;;;;;8.27;5.35;;;;;;;11.77;100.00;99513.22;5160376;27;20464;-56
2023/09/12 03:32:05;;;;;;;9.57;4.22;;;;;;;11.78;100.00;99514.78;5160504;27;20047;-54
2023/09/12 03:34:31;;;;;;;8.57;4.72;;;;;;;11.75;100.00;99521.03;5160697;27;20199;-56
2023/09/12 03:36:57;;;;;;;9.80;4.05;;;;;;;11.81;100.00;99514.06;5160400;27;20133;-57
2023/09/12 03:39:23;;;;;;;9.68;4.57;;;;;;;11.81;100.00;99510.53;5160419;27;20085;-58
2023/09/12 03:41:48;;;;;;;9.43;4.75;;;;;;;11.81;100.00;99503.09;5160223;27;20050;-60
2023/09/12 03:44:15;;;;;;;9.57;4.07;;;;;;;11.74;100.00;99508.44;5160573;27;20142;-57
2023/09/12 03:46:41;;;;;;;8.18;4.15;;;;;;;11.71;100.00;99514.66;5160132;27;20061;-58
2023/09/12 03:49:07;;;;;;;12.50;4.20;;;;;;;11.78;100.00;99520.28;5160454;27;20051;-57
2023/09/12 03:51:35;;;;;;;7.28;4.10;;;;;;;11.80;100.00;99511.69;5159972;27;20137;-58
2023/09/12 03:54:00;;;;;;;8.20;3.90;;;;;;;11.83;100.00;99506.28;5160229;27;20095;-54
2023/09/12 03:56:26;;;;;;;6.65;4.22;;;;;;;11.85;100.00;99500.44;5160015;27;20377;-57
2023/09/12 03:58:53;;;;;;;5.57;4.40;;;;;;;11.85;100.00;99503.97;5159842;27;20050;-57
2023/09/12 04:01:20;;;;;;;12.70;4.70;;;;;;;11.91;100.00;99497.00;5160254;27;20054;-55
2023/09/12 04:03:47;;;;;;;7.13;4.07;;;;;;;11.90;100.00;99486.41;5160051;27;20046;-55
2023/09/12 04:06:13;;;;;;;8.52;4.32;;;;;;;11.97;100.00;99486.53;5160161;27;20404;-57
2023/09/12 04:08:39;;;;;;;7.43;4.22;;;;;;;12.04;100.00;99478.41;5160069;27;20047;-59
2023/09/12 04:11:05;;;;;;;5.47;4.07;;;;;;;12.08;100.00;99468.25;5159894;27;20097;-59
2023/09/12 04:13:31;;;;;;;9.40;4.80;;;;;;;12.10;100.00;99445.91;5159702;27;20066;-59
2023/09/12 04:15:57;;;;;;;6.32;4.47;;;;;;;12.47;100.00;99438.63;5160114;27;20077;-59
2023/09/12 04:18:23;;;;;;;7.22;4.15;;;;;;;12.83;100.00;99355.78;5159859;27;20129;-57
2023/09/12 04:20:49;;;;;;;6.30;4.00;;;;;;;13.34;100.00;99223.81;5160002;27;20055;-57
2023/09/12 04:23:16;;;;;;;10.90;4.18;;;;;;;13.88;100.00;98985.19;5159754;27;20061;-58
2023/09/12 04:25:43;;;;;;;6.93;3.92;;;;;;;14.28;100.00;98728.81;5159655;27;20106;-59
2023/09/12 04:28:09;;;;;;;9.98;3.95;;;;;;;14.65;100.00;98501.25;5159549;27;20404;-59
2023/09/12 04:30:35;;;;;;;8.20;4.07;;;;;;;15.00;100.00;98340.84;5158912;27;20050;-58
2023/09/12 04:33:01;;;;;;;7.18;3.65;;;;;;;15.35;100.00;98266.19;5159656;27;20054;-56
2023/09/12 04:35:27;;;;;;;14.77;3.83;;;;;;;15.38;100.00;98223.91;5159219;27;20051;-58
2023/09/12 04:37:53;;;;;;;8.95;3.72;;;;;;;15.99;100.00;98218.13;5159443;27;20134;-58
2023/09/12 04:40:19;;;;;;;5.32;3.40;;;;;;;16.29;100.00;98233.72;5159184;27;20055;-59
2023/09/12 04:42:45;;;;;;;7.55;3.45;;;;;;;16.63;100.00;98266.63;5159554;27;20054;-59
2023/09/12 04:45:11;;;;;;;5.22;3.60;;;;;;;16.93;100.00;98339.59;5159022;27;20280;-57
2023/09/12 04:47:37;;;;;;;5.68;3.67;;;;;;;17.12;100.00;98441.22;5159519;27;20137;-57
2023/09/12 04:50:04;;;;;;;6.10;3.30;;;;;;;17.62;100.00;98472.66;5158797;27;20093;-57
2023/09/12 04:52:30;;;;;;;3.92;3.10;;;;;;;18.24;100.00;98589.41;5159223;27;20141;-58
2023/09/12 04:54:56;;;;;;;11.55;3.47;;;;;;;18.49;100.00;98617.38;5158860;27;20360;-57
2023/09/12 04:57:22;;;;;;;5.88;3.50;;;;;;;18.70;100.00;98677.19;5159086;27;20054;-58
2023/09/12 04:59:48;;;;;;;5.05;3.83;;;;;;;19.05;100.00;98677.56;5158757;27;20404;-57
2023/09/12 05:02:15;;;;;;;7.47;3.92;;;;;;;19.40;100.00;98695.38;5158499;27;20049;-57
2023/09/12 05:04:41;;;;;;;5.75;3.72;;;;;;;19.51;100.00;98748.69;5158887;27;20050;-58
2023/09/12 05:07:07;;;;;;;7.28;3.45;;;;;;;19.93;100.00;98757.19;5158873;27;20142;-58
2023/09/12 05:09:33;;;;;;;8.93;4.22;;;;;;;20.37;100.00;98792.97;5158959;27;20074;-56
2023/09/12 05:11:59;;;;;;;4.50;2.83;;;;;;;19.64;100.00;98793.28;5158820;27;20339;-56
2023/09/12 05:14:25;;;;;;;5.85;3.88;;;;;;;20.11;100.00;98806.78;5158998;27;20046;-55
2023/09/12 05:16:51;;;;;;;6.05;3.13;;;;;;;19.95;100.00;98796.47;5158564;27;20086;-52
2023/09/12 05:19:17;;;;;;;2.78;2.20;;;;;;;20.60;100.00;98828.19;5158887;27;20372;-52
2023/09/12 05:21:43;;;;;;;4.45;3.03;;;;;;;21.10;100.00;98837.88;5158618;27;20078;-52
2023/09/12 05:24:09;;;;;;;4.07;2.85;;;;;;;21.40;100.00;98860.91;5158600;27;20077;-51
2023/09/12 05:26:35;;;;;;;5.90;2.95;;;;;;;20.59;100.00;98848.88;5158623;27;20050;-54
2023/09/12 05:29:02;;;;;;;9.55;3.45;;;;;;;21.15;100.00;98870.75;5158235;27;20051;-51
2023/09/12 05:31:28;;;;;;;10.93;3.10;;;;;;;21.41;100.00;98881.97;5158689;27;20368;-55
2023/09/12 05:33:54;;;;;;;6.22;3.08;;;;;;;21.49;100.00;98880.50;5158107;27;20475;-56
2023/09/12 05:36:20;;;;;;;3.53;3.03;;;;;;;20.93;100.00;98884.53;5158572;27;20137;-55
2023/09/12 05:38:46;;;;;;;4.43;3.15;;;;;;;20.88;100.00;98869.13;5158118;27;20054;-58
2023/09/12 05:41:12;;;;;;;8.32;2.92;;;;;;;21.90;100.00;98885.19;5157429;27;20107;-58
2023/09/12 05:43:38;;;;;;;11.18;3.15;;;;;;;22.07;100.00;98886.59;5158052;27;20410;-57
2023/09/12 05:46:04;;;;;;;5.63;3.45;;;;;;;21.93;100.00;98895.47;5158311;27;20384;-59
2023/09/12 05:48:30;;;;;;;5.40;2.80;;;;;;;22.63;100.00;98913.06;5157870;27;20079;-60
2023/09/12 05:50:56;;;;;;;5.72;3.10;;;;;;;22.67;100.00;98910.91;5158004;27;20099;-60
2023/09/12 05:53:22;;;;;;;8.52;3.97;;;;;;;22.36;100.00;98908.03;5157895;27;20548;-59
2023/09/12 05:55:48;;;;;;;7.40;3.03;;;;;;;22.49;100.00;98913.53;5157943;27;20058;-56
2023/09/12 05:58:13;;;;;;;6.90;3.30;;;;;;;23.50;100.00;98922.69;5158219;27;20126;-57
2023/09/12 06:00:40;;;;;;;5.80;3.78;;;;;;;23.07;100.00;98920.72;5157578;27;20472;-58
2023/09/12 06:03:07;;;;;;;9.57;3.95;;;;;;;23.61;100.00;98920.22;5158017;27;20054;-63
2023/09/12 06:05:33;;;;;;;7.97;2.60;;;;;;;22.91;100.00;98922.44;5157523;27;20430;-59
2023/09/12 06:07:59;;;;;;;5.90;3.15;;;;;;;23.94;100.00;98920.56;5157659;27;20042;-58
2023/09/12 06:10:25;;;;;;;7.43;3.22;;;;;;;23.80;100.00;98931.56;5157611;27;20097;-56
2023/09/12 06:12:51;;;;;;;9.32;3.25;;;;;;;24.32;97.43;98929.81;5157985;27;20050;-57
2023/09/12 06:15:17;;;;;;;11.80;3.42;;;;;;;23.41;100.00;98929.00;5157589;27;20070;-60
2023/09/12 06:17:44;;;;;;;6.85;3.17;;;;;;;24.18;99.23;98931.19;5157945;27;20360;-58
2023/09/12 06:20:10;;;;;;;7.70;3.15;;;;;;;24.80;93.05;98941.41;5157680;27;20332;-55
2023/09/12 06:22:36;;;;;;;8.00;2.95;;;;;;;24.94;95.36;98937.22;5157733;27;20176;-56
2023/09/12 06:25:03;;;;;;;6.95;3.00;;;;;;;25.31;87.20;98944.34;5157316;27;20050;-54
2023/09/12 06:27:30;;;;;;;8.00;3.97;;;;;;;25.74;86.33;98942.34;5157754;27;20143;-59
2023/09/12 06:29:56;;;;;;;9.45;3.95;;;;;;;25.94;83.80;98946.66;5157596;27;20113;-59
2023/09/12 06:32:22;;;;;;;8.40;3.88;;;;;;;25.96;85.52;98944.16;5157349;27;20058;-59
2023/09/12 06:34:49;;;;;;;12.95;4.50;;;;;;;26.07;82.26;98950.03;5157280;27;20119;-59
2023/09/12 06:37:15;;;;;;;13.45;4.50;;;;;;;26.11;79.55;98952.66;5157642;27;20046;-57
2023/09/12 06:39:41;;;;;;;12.10;3.80;;;;;;;25.99;78.97;98952.44;5157923;27;20089;-59
2023/09/12 06:42:07;;;;;;;8.40;3.95;;;;;;;26.34;76.78;98953.94;5157383;27;20051;-59
2023/09/12 06:44:33;;;;;;;10.57;3.90;;;;;;;26.08;77.84;98959.22;5157123;27;20043;-57
2023/09/12 06:46:59;;;;;;;14.93;4.35;;;;;;;26.69;74.56;98962.63;5157362;27;20050;-59
2023/09/12 06:49:25;;;;;;;6.90;4.35;;;;;;;27.10;73.74;98965.75;5156836;27;20054;-60
2023/09/12 06:51:52;;;;;;;9.50;3.67;;;;;;;27.11;73.27;98967.28;5157395;27;20050;-57
2023/09/12 06:54:18;;;;;;;9.23;4.30;;;;;;;27.50;71.25;98970.84;5160719;27;20384;-59
2023/09/12 06:56:43;;;;;;;13.80;3.67;;;;;;;27.58;71.64;98974.03;5160696;27;20078;-57
2023/09/12 06:59:09;;;;;;;6.70;3.88;;;;;;;27.38;72.54;98974.72;5160561;27;20047;-57
2023/09/12 07:01:35;;;;;;;9.38;4.10;;;;;;;27.11;71.01;98972.91;5161026;27;20133;-56
2023/09/12 07:04:03;;;;;;;5.90;3.33;;;;;;;27.12;71.04;98978.03;5160531;27;20050;-57
2023/09/12 07:06:28;;;;;;;10.27;3.53;;;;;;;27.41;68.88;98971.69;5160633;27;20085;-55
2023/09/12 07:08:55;;;;;;;7.72;3.80;;;;;;;26.92;71.21;98964.63;5160207;27;20134;-57
2023/09/12 07:11:21;;;;;;;13.55;4.65;;;;;;;26.75;71.29;98961.47;5160983;27;20054;-57
2023/09/12 07:13:47;;;;;;;6.97;4.32;;;;;;;27.00;72.37;98970.66;5160421;27;20060;-57
2023/09/12 07:16:13;;;;;;;9.52;3.90;;;;;;;27.24;69.21;98973.44;5160777;27;20050;-58
2023/09/12 07:18:39;;;;;;;18.92;10.63;;;;;;;27.78;68.20;98976.19;5160098;27;20324;-53
2023/09/12 07:21:06;;;;;;;8.98;4.05;;;;;;;26.12;69.89;98971.06;5160392;27;20404;-58
2023/09/12 07:23:32;;;;;;;9.82;3.70;;;;;;;26.55;71.97;98966.16;5160631;27;20051;-57
2023/09/12 07:25:59;;;;;;;8.95;3.70;;;;;;;26.18;74.09;98971.97;5160222;27;20050;-59
2023/09/12 07:28:25;;;;;;;7.60;3.95;;;;;;;27.58;69.25;98979.66;5160264;27;20094;-60
2023/09/12 07:30:51;;;;;;;7.47;3.33;;;;;;;26.86;67.84;98977.06;5159996;27;20118;-59
2023/09/12 07:33:17;;;;;;;7.55;3.30;;;;;;;28.06;66.67;98983.03;5160288;27;20422;-58
2023/09/12 07:35:43;;;;;;;5.57;3.40;;;;;;;27.81;64.11;98980.84;5160257;27;20050;-57
2023/09/12 07:38:09;;;;;;;8.15;3.22;;;;;;;27.31;66.00;98973.06;5160188;27;20051;-57
2023/09/12 07:40:35;;;;;;;5.00;3.20;;;;;;;28.34;64.34;98974.22;5160024;27;20081;-54
2023/09/12 07:43:02;;;;;;;8.27;3.65;;;;;;;28.75;61.31;98977.06;5160352;27;20145;-58
2023/09/12 07:45:29;;;;;;;5.07;3.17;;;;;;;28.30;61.10;98977.25;5159674;27;20085;-59
2023/09/12 07:47:55;;;;;;;8.48;3.65;;;;;;;29.15;59.54;98975.50;5160093;27;20133;-57
2023/09/12 07:50:21;;;;;;;7.82;3.25;;;;;;;28.17;59.99;98976.03;5159847;27;20373;-57
2023/09/12 07:52:47;;;;;;;7.45;2.90;;;;;;;28.12;59.29;98972.66;5160170;27;20065;-58
2023/09/12 07:55:13;;;;;;;8.05;3.42;;;;;;;28.73;57.45;98974.00;5159750;27;20055;-59
2023/09/12 07:57:39;;;;;;;11.13;3.60;;;;;;;28.41;58.57;98965.38;5159528;27;20463;-59
2023/09/12 08:00:10;;;;;;;7.90;3.13;;;;;;;28.68;57.39;98971.88;5159531;27;20046;-59
2023/09/12 08:02:36;;;;;;;10.05;3.53;;;;;;;29.30;56.33;98976.19;5159470;27;20051;-59
2023/09/12 08:05:02;;;;;;;13.38;3.97;;;;;;;29.88;55.58;98973.38;5158740;27;20423;-57
2023/09/12 08:07:28;;;;;;;7.70;3.60;;;;;;;29.58;56.85;98973.63;5159231;27;20089;-57
2023/09/12 08:09:57;;;;;;;11.75;4.20;;;;;;;29.44;56.15;98966.81;5159488;27;20090;-59
2023/09/12 08:12:24;;;;;;;7.82;3.40;;;;;;;29.14;55.83;98974.72;5159157;27;20058;-59
2023/09/12 08:14:50;;;;;;;6.60;3.58;;;;;;;28.61;57.47;98973.84;5159557;27;20078;-59
2023/09/12 08:17:17;;;;;;;6.82;3.45;;;;;;;28.71;56.99;98968.81;5159207;27;20093;-58
2023/09/12 08:19:43;;;;;;;10.85;3.45;;;;;;;27.89;58.14;98974.34;5159275;27;20103;-59
2023/09/12 08:22:10;;;;;;;12.50;3.95;;;;;;;28.33;57.63;98969.84;5159477;27;20443;-55
2023/09/12 08:24:36;;;;;;;11.00;4.25;;;;;;;28.69;57.79;98968.56;5159224;27;20061;-58
2023/09/12 08:27:03;;;;;;;13.57;3.97;;;;;;;27.88;57.41;98972.00;5159302;27;20142;-57
2023/09/12 08:29:29;;;;;;;7.63;4.15;;;;;;;28.98;56.56;98969.66;5158804;27;20056;-59
2023/09/12 08:31:55;;;;;;;8.57;4.20;;;;;;;28.25;58.59;98974.34;5159304;27;20042;-56
2023/09/12 08:34:22;;;;;;;11.00;4.20;;;;;;;29.14;57.13;98973.97;5159083;27;20054;-58
2023/09/12 08:36:48;;;;;;;10.00;4.10;;;;;;;28.74;56.89;98976.31;5159021;27;20154;-58
2023/09/12 08:39:16;;;;;;;8.18;4.03;;;;;;;29.14;56.14;98974.72;5158663;27;20103;-58
2023/09/12 08:41:42;;;;;;;13.57;4.35;;;;;;;28.83;56.25;98989.50;5159280;27;20086;-57
2023/09/12 08:44:09;;;;;;;9.40;4.20;;;;;;;28.08;58.29;98974.09;5158665;27;20062;-56
2023/09/12 08:46:36;;;;;;;8.20;4.10;;;;;;;27.17;58.89;98985.84;5158829;27;20126;-54
2023/09/12 08:49:05;;;;;;;9.95;4.60;;;;;;;27.32;61.00;98982.28;5158853;27;20062;-54
2023/09/12 08:51:32;;;;;;;9.05;4.50;;;;;;;27.50;60.04;98973.66;5158727;27;20550;-58
2023/09/12 08:53:58;;;;;;;8.38;4.38;;;;;;;27.46;60.58;98978.72;5159095;27;20137;-59
2023/09/12 08:56:24;;;;;;;12.77;4.60;;;;;;;26.96;62.71;98978.53;5158812;27;20143;-60
2023/09/12 08:58:51;;;;;;;5.70;4.00;;;;;;;26.65;63.26;98971.25;5158949;27;20046;-58
2023/09/12 09:01:19;;;;;;;8.90;4.28;;;;;;;26.24;64.64;98976.47;5158777;27;20347;-57
2023/09/12 09:03:45;;;;;;;12.23;3.80;;;;;;;27.08;64.26;98973.88;5159160;27;20320;-58
2023/09/12 09:06:12;;;;;;;11.80;4.25;;;;;;;28.06;62.35;98973.81;5158529;27;20059;-55
2023/09/12 09:08:39;;;;;;;8.77;4.00;;;;;;;27.08;61.89;98977.47;5159137;27;20074;-58
2023/09/12 09:11:06;;;;;;;7.40;3.92;;;;;;;26.80;63.45;98968.50;5158370;27;20046;-60
2023/09/12 09:13:32;;;;;;;12.27;3.70;;;;;;;27.59;63.03;98969.94;5158627;27;20061;-58
2023/09/12 09:16:12;;;;;;;16.70;4.40;;;;;;;28.19;61.56;98968.63;5158320;27;20050;-57
2023/09/12 09:18:54;;;;;;;9.15;3.95;;;;;;;27.36;62.09;98966.00;5158358;27;20399;-57
2023/09/12 09:21:24;;;;;;;6.60;4.07;;;;;;;27.76;61.57;98968.25;5158957;27;20055;-59
2023/09/12 09:23:51;;;;;;;7.47;3.88;;;;;;;28.30;59.21;98953.91;5158436;27;20054;-54
2023/09/12 09:26:18;;;;;;;9.48;3.72;;;;;;;28.07;59.56;98964.09;5158656;27;20061;-55
2023/09/12 09:28:43;;;;;;;8.70;3.60;;;;;;;27.84;60.25;98963.75;5158173;27;20149;-61
2023/09/12 09:31:13;;;;;;;9.25;3.80;;;;;;;28.05;59.72;98969.44;5158611;27;20078;-58
2023/09/12 09:33:40;;;;;;;9.48;4.00;;;;;;;27.78;60.25;98970.56;5158038;27;20051;-59
2023/09/12 09:36:07;;;;;;;11.25;4.00;;;;;;;28.36;59.75;98960.41;5158327;27;20057;-59
2023/09/12 09:38:35;;;;;;;5.55;3.47;;;;;;;28.25;58.87;98954.59;5158031;27;20137;-56
2023/09/12 09:41:04;;;;;;;6.70;3.60;;;;;;;28.37;57.96;98959.91;5158257;27;20050;-54
2023/09/12 09:43:32;;;;;;;8.38;3.85;;;;;;;28.24;58.63;98967.94;5158277;27;20057;-55
2023/09/12 09:45:58;;;;;;;6.75;3.10;;;;;;;28.82;57.42;98960.50;5158071;27;20119;-56
2023/09/12 09:48:26;;;;;;;6.97;3.63;;;;;;;27.50;59.65;98967.25;5158013;27;20053;-57
2023/09/12 09:50:53;;;;;;;6.30;3.00;;;;;;;27.99;58.99;98963.72;5157886;27;20412;-57
2023/09/12 09:53:22;;;;;;;3.90;3.17;;;;;;;27.56;58.80;98957.63;5158566;27;20048;-57
2023/09/12 09:55:48;;;;;;;11.65;3.40;;;;;;;28.55;57.49;98963.75;5157940;27;20157;-58
2023/09/12 09:58:16;;;;;;;10.02;3.28;;;;;;;27.71;59.15;98957.63;5158289;27;20495;-59
2023/09/12 10:00:43;;;;;;;7.97;3.70;;;;;;;27.57;60.77;98956.38;5157501;27;20069;-57
2023/09/12 10:03:12;;;;;;;7.03;4.05;;;;;;;26.92;60.80;98958.22;5157577;27;20500;-59
2023/09/12 10:05:39;;;;;;;9.00;3.78;;;;;;;27.96;60.06;98955.47;5157912;27;20046;-59
2023/09/12 10:08:09;;;;;;;7.68;3.30;;;;;;;27.90;59.79;98956.16;5157569;27;20055;-58
2023/09/12 10:10:38;;;;;;;8.20;3.47;;;;;;;28.28;58.90;98954.41;5167342;27;20054;-59
2023/09/12 10:13:05;;;;;;;4.60;3.00;;;;;;;26.99;60.87;98969.91;5178370;27;20046;-59
2023/09/12 10:15:34;;;;;;;6.97;3.28;;;;;;;26.92;63.04;98955.41;5178385;27;20057;-58
2023/09/12 10:18:03;;;;;;;11.23;3.72;;;;;;;27.95;60.06;98948.28;5172723;27;20412;-60
2023/09/12 10:20:35;;;;;;;10.30;3.08;;;;;;;28.32;60.04;98942.91;5165078;27;20145;-59
2023/09/12 10:23:08;;;;;;;9.65;3.30;;;;;;;27.32;60.96;98949.28;5178579;27;20050;-59
2023/09/12 10:25:36;;;;;;;7.05;3.33;;;;;;;27.84;60.58;98946.84;5178469;27;20088;-59
2023/09/12 10:28:04;;;;;;;6.60;3.50;;;;;;;27.71;61.37;98945.56;5179965;27;20058;-58
2023/09/12 10:30:32;;;;;;;12.85;3.40;;;;;;;27.36;61.32;98944.25;5179148;27;20141;-59
2023/09/12 10:33:00;;;;;;;8.18;3.40;;;;;;;27.14;62.88;98941.03;5181866;27;20137;-61
2023/09/12 10:35:27;;;;;;;10.80;3.50;;;;;;;27.84;61.75;98935.56;5164551;27;20060;-61
2023/09/12 10:37:57;;;;;;;18.27;4.18;;;;;;;27.83;60.97;98944.53;5181999;27;20330;-60
2023/09/12 10:40:24;;;;;;;4.97;3.05;;;;;;;27.79;60.44;98944.72;5181408;27;20045;-59
2023/09/12 10:42:51;;;;;;;7.30;3.40;;;;;;;27.99;60.52;98938.38;5161224;27;20057;-59
2023/09/12 10:45:18;;;;;;;8.30;3.30;;;;;;;27.36;62.44;98943.47;5160987;27;20207;-59
2023/09/12 10:47:45;;;;;;;8.00;3.35;;;;;;;27.84;60.44;98943.25;5176984;27;20487;-60
2023/09/12 10:50:11;;;;;;;6.97;3.60;;;;;;;28.32;60.33;98940.09;5181002;27;20050;-60
2023/09/12 10:52:39;;;;;;;7.03;3.20;;;;;;;27.16;61.46;98949.78;5181452;27;20133;-61
2023/09/12 10:55:06;;;;;;;11.77;3.60;;;;;;;27.36;62.35;98935.81;5181495;27;20050;-60
2023/09/12 10:57:33;;;;;;;10.48;3.40;;;;;;;27.49;63.56;98940.34;5180701;27;20419;-59
2023/09/12 11:00:13;;;;;;;10.68;3.35;;;;;;;27.28;63.07;98936.66;5181631;27;20086;-59
2023/09/12 11:02:39;;;;;;;19.52;3.53;;;;;;;27.86;62.35;98937.91;5181408;27;20045;-58
2023/09/12 11:05:27;;;;;;;12.50;3.20;;;;;;;26.86;65.13;98930.00;5181529;27;20042;-59
2023/09/12 11:07:56;;;;;;;9.02;3.38;;;;;;;26.84;66.04;98938.13;5181069;27;20129;-55
2023/09/12 11:10:24;;;;;;;3.75;3.40;;;;;;;26.99;65.60;98936.13;5181664;27;20080;-55
2023/09/12 11:12:51;;;;;;;9.00;3.40;;;;;;;26.80;67.19;98931.94;5181609;27;20090;-54
2023/09/12 11:15:18;;;;;;;8.45;3.60;;;;;;;26.02;71.02;98923.38;5181089;27;20091;-55
2023/09/12 11:17:45;;;;;;;7.22;3.35;;;;;;;25.81;71.51;98916.75;5181481;27;20052;-58
2023/09/12 11:20:13;;;;;;;8.40;3.63;;;;;;;25.64;72.16;98921.19;5181388;27;20149;-56
2023/09/12 11:22:40;;;;;;;8.40;3.50;;;;;;;25.65;71.68;98917.09;5181401;27;20084;-57
2023/09/12 11:25:16;;;;;;;10.57;4.18;;;;;;;26.02;74.53;98914.16;5180827;27;20133;-58